createdAt,value
2018-12-01T00:00:34.733Z,30.60
2018-12-01T00:03:05.059Z,37.07
2018-12-01T00:05:35.176Z,36.93
2018-12-01T00:08:05.714Z,37.43
2018-12-01T00:10:35.835Z,32.37
2018-12-01T00:13:05.959Z,37.23
2018-12-01T00:15:36.184Z,36.87
2018-12-01T00:18:06.719Z,33.83
2018-12-01T00:20:38.089Z,34.00
2018-12-01T00:23:08.188Z,37.13
2018-12-01T00:25:38.309Z,27.87
2018-12-01T00:28:08.432Z,33.13
2018-12-01T00:30:38.657Z,33.17
2018-12-01T00:33:08.782Z,30.63
2018-12-01T00:35:39.283Z,34.00
2018-12-01T00:38:09.384Z,30.50
2018-12-01T00:40:39.659Z,38.10
2018-12-01T00:43:09.751Z,25.73
2018-12-01T00:45:39.912Z,28.30
2018-12-01T00:48:10.239Z,28.47
2018-12-01T00:50:40.251Z,26.10
2018-12-01T00:53:10.376Z,25.77
2018-12-01T00:55:40.482Z,28.27
2018-12-01T00:58:10.619Z,31.67
2018-12-01T01:00:41.636Z,36.33
2018-12-01T01:03:11.785Z,27.43
2018-12-01T01:05:42.009Z,33.80
2018-12-01T01:08:12.132Z,39.17
2018-12-01T01:10:42.254Z,38.30
2018-12-01T01:13:12.375Z,35.37
2018-12-01T01:15:42.414Z,39.17
2018-12-01T01:18:12.503Z,32.57
2018-12-01T01:20:42.644Z,38.40
2018-12-01T01:23:12.668Z,34.80
2018-12-01T01:25:42.784Z,32.63
2018-12-01T01:28:12.831Z,34.10
2018-12-01T01:30:42.943Z,29.43
2018-12-01T01:33:24.306Z,34.33
2018-12-01T01:35:54.422Z,34.40
2018-12-01T01:38:24.450Z,31.27
2018-12-01T01:40:59.887Z,30.63
2018-12-01T01:43:30.014Z,32.57
2018-12-01T01:46:00.137Z,33.87
2018-12-01T01:48:30.260Z,34.67
2018-12-01T01:51:00.385Z,32.20
2018-12-01T01:53:30.495Z,29.30
2018-12-01T01:56:00.605Z,37.93
2018-12-01T01:58:31.364Z,36.30
2018-12-01T02:01:01.383Z,40.60
2018-12-01T02:03:31.459Z,35.13
2018-12-01T02:06:01.454Z,35.53
2018-12-01T02:08:32.570Z,33.07
2018-12-01T02:11:02.580Z,32.73
2018-12-01T02:13:32.609Z,30.40
2018-12-01T02:16:02.731Z,30.40
2018-12-01T02:18:32.856Z,27.13
2018-12-01T02:21:02.978Z,26.57
2018-12-01T02:23:33.202Z,26.03
2018-12-01T02:26:03.324Z,26.53
2018-12-01T02:28:33.448Z,30.03
2018-12-01T02:31:03.563Z,21.80
2018-12-01T02:33:33.692Z,30.23
2018-12-01T02:36:03.817Z,28.90
2018-12-01T02:38:33.919Z,28.00
2018-12-01T02:41:03.988Z,23.00
2018-12-01T02:43:34.032Z,26.90
2018-12-01T02:46:15.359Z,24.27
2018-12-01T02:48:45.420Z,24.70
2018-12-01T02:51:15.791Z,26.90
2018-12-01T02:53:45.812Z,28.33
2018-12-01T02:56:15.949Z,28.50
2018-12-01T02:58:46.051Z,26.20
2018-12-01T03:01:16.204Z,29.13
2018-12-01T03:03:46.299Z,27.00
2018-12-01T03:06:16.439Z,31.23
2018-12-01T03:08:47.248Z,32.07
2018-12-01T03:11:17.400Z,31.90
2018-12-01T03:13:47.418Z,34.57
2018-12-01T03:16:17.644Z,28.47
2018-12-01T03:18:47.767Z,29.30
2018-12-01T03:21:17.992Z,35.13
2018-12-01T03:23:48.091Z,30.70
2018-12-01T03:26:18.236Z,33.77
2018-12-01T03:28:48.359Z,33.40
2018-12-01T03:31:18.482Z,37.53
2018-12-01T03:33:48.710Z,34.97
2018-12-01T03:36:18.820Z,38.57
2018-12-01T03:38:49.343Z,38.27
2018-12-01T03:41:19.483Z,44.90
2018-12-01T03:43:49.605Z,46.67
2018-12-01T03:46:19.727Z,43.07
2018-12-01T03:48:49.849Z,45.17
2018-12-01T03:51:19.973Z,46.17
2018-12-01T03:53:50.094Z,43.87
2018-12-01T03:56:20.255Z,46.70
2018-12-01T03:58:50.441Z,42.70
2018-12-01T04:01:20.524Z,37.77
2018-12-01T04:03:50.792Z,36.03
2018-12-01T04:06:21.064Z,34.80
2018-12-01T04:08:51.238Z,35.37
2018-12-01T04:11:21.362Z,23.47
2018-12-01T04:13:51.486Z,25.07
2018-12-01T04:16:21.542Z,24.37
2018-12-01T04:18:51.595Z,26.83
2018-12-01T04:21:21.683Z,28.67
2018-12-01T04:23:51.871Z,28.83
2018-12-01T04:26:21.993Z,22.97
2018-12-01T04:28:52.059Z,20.17
2018-12-01T04:31:22.341Z,27.50
2018-12-01T04:33:52.506Z,20.63
2018-12-01T04:36:22.585Z,23.63
2018-12-01T04:38:53.015Z,22.60
2018-12-01T04:41:23.956Z,26.03
2018-12-01T04:43:54.181Z,21.97
2018-12-01T04:46:24.259Z,24.80
2018-12-01T04:48:54.426Z,23.27
2018-12-01T04:51:24.547Z,22.27
2018-12-01T04:53:54.670Z,28.80
2018-12-01T04:56:24.895Z,21.60
2018-12-01T04:58:55.018Z,27.27
2018-12-01T05:01:25.140Z,24.33
2018-12-01T05:03:55.367Z,23.10
2018-12-01T05:06:25.400Z,29.30
2018-12-01T05:08:55.612Z,25.70
2018-12-01T05:11:25.719Z,28.43
2018-12-01T05:13:56.673Z,25.80
2018-12-01T05:16:26.796Z,26.93
2018-12-01T05:18:56.918Z,28.63
2018-12-01T05:21:26.943Z,28.03
2018-12-01T05:23:56.970Z,26.97
2018-12-01T05:26:27.082Z,31.67
2018-12-01T05:28:57.208Z,25.73
2018-12-01T05:31:27.326Z,28.07
2018-12-01T05:33:57.450Z,30.80
2018-12-01T05:36:27.471Z,29.30
2018-12-01T05:38:57.604Z,29.43
2018-12-01T05:41:27.683Z,30.90
2018-12-01T05:43:57.939Z,32.73
2018-12-01T05:46:27.957Z,37.23
2018-12-01T05:48:58.082Z,32.63
2018-12-01T05:51:28.306Z,34.83
2018-12-01T05:53:59.348Z,38.60
2018-12-01T05:56:29.472Z,44.93
2018-12-01T05:58:59.595Z,35.63
2018-12-01T06:01:29.708Z,37.53
2018-12-01T06:03:59.838Z,32.47
2018-12-01T06:06:30.472Z,34.53
2018-12-01T06:09:00.595Z,33.73
2018-12-01T06:11:31.433Z,31.53
2018-12-01T06:14:01.448Z,33.57
2018-12-01T06:16:31.577Z,37.07
2018-12-01T06:19:01.802Z,37.40
2018-12-01T06:21:31.820Z,36.47
2018-12-01T06:24:01.945Z,36.90
2018-12-01T06:26:31.956Z,36.60
2018-12-01T06:29:02.019Z,35.30
2018-12-01T06:31:32.107Z,36.40
2018-12-01T06:34:02.187Z,32.27
2018-12-01T06:36:32.227Z,38.03
2018-12-01T06:39:02.473Z,35.47
2018-12-01T06:41:32.493Z,33.73
2018-12-01T06:44:02.731Z,34.37
2018-12-01T06:46:32.738Z,32.73
2018-12-01T06:49:02.791Z,40.47
2018-12-01T06:51:32.819Z,28.10
2018-12-01T06:54:02.862Z,34.80
2018-12-01T06:56:32.904Z,35.37
2018-12-01T06:59:02.979Z,32.33
2018-12-01T07:01:33.004Z,32.93
2018-12-01T07:04:03.028Z,27.07
2018-12-01T07:06:33.068Z,29.07
2018-12-01T07:09:03.108Z,24.17
2018-12-01T07:11:33.147Z,29.70
2018-12-01T07:14:03.207Z,28.53
2018-12-01T07:16:33.276Z,24.33
2018-12-01T07:19:12.894Z,25.33
2018-12-01T07:21:43.039Z,26.07
2018-12-01T07:24:13.179Z,24.53
2018-12-01T07:26:43.215Z,28.07
2018-12-01T07:29:13.265Z,28.23
2018-12-01T07:31:43.219Z,32.40
2018-12-01T07:34:13.279Z,30.73
2018-12-01T07:36:43.311Z,25.93
2018-12-01T07:39:13.402Z,29.70
2018-12-01T07:41:43.475Z,33.27
2018-12-01T07:44:13.500Z,30.10
2018-12-01T07:46:43.540Z,28.70
2018-12-01T07:49:14.602Z,26.50
2018-12-01T07:51:44.591Z,28.17
2018-12-01T07:54:14.655Z,23.33
2018-12-01T07:56:44.679Z,31.30
2018-12-01T07:59:14.719Z,28.70
2018-12-01T08:01:44.723Z,28.57
2018-12-01T08:04:14.751Z,27.53
2018-12-01T08:06:44.783Z,26.70
2018-12-01T08:09:14.873Z,25.47
2018-12-01T08:11:44.935Z,26.73
2018-12-01T08:14:14.983Z,26.13
2018-12-01T08:16:45.096Z,23.83
2018-12-01T08:19:15.139Z,20.10
2018-12-01T08:21:45.159Z,24.53
2018-12-01T08:24:15.219Z,21.60
2018-12-01T08:26:45.256Z,20.73
2018-12-01T08:29:15.320Z,20.90
2018-12-01T08:31:45.375Z,21.87
2018-12-01T08:34:15.415Z,21.93
2018-12-01T08:36:45.479Z,21.97
2018-12-01T08:39:15.523Z,21.90
2018-12-01T08:41:45.586Z,20.90
2018-12-01T08:44:15.605Z,20.33
2018-12-01T08:46:45.673Z,22.17
2018-12-01T08:49:15.728Z,18.57
2018-12-01T08:51:45.772Z,22.47
2018-12-01T08:54:15.803Z,27.30
2018-12-01T08:56:47.277Z,22.50
2018-12-01T08:59:17.343Z,25.87
2018-12-01T09:01:47.439Z,33.07
2018-12-01T09:04:17.483Z,28.67
2018-12-01T09:06:47.539Z,29.93
2018-12-01T09:09:17.599Z,33.10
2018-12-01T09:11:47.648Z,29.80
2018-12-01T09:14:17.928Z,28.43
2018-12-01T09:16:47.996Z,30.33
2018-12-01T09:19:18.099Z,29.23
2018-12-01T09:21:48.313Z,24.70
2018-12-01T09:24:18.337Z,28.30
2018-12-01T09:26:48.407Z,23.97
2018-12-01T09:29:18.425Z,24.37
2018-12-01T09:31:48.456Z,26.97
2018-12-01T09:34:18.495Z,24.33
2018-12-01T09:36:48.621Z,23.00
2018-12-01T09:39:18.647Z,22.40
2018-12-01T09:41:48.739Z,26.00
2018-12-01T09:44:18.792Z,21.87
2018-12-01T09:46:48.811Z,23.57
2018-12-01T09:49:18.860Z,25.40
2018-12-01T09:51:48.899Z,25.47
2018-12-01T09:54:18.959Z,20.13
2018-12-01T09:56:49.037Z,23.07
2018-12-01T09:59:19.064Z,20.27
2018-12-01T10:01:49.067Z,22.70
2018-12-01T10:04:19.127Z,18.97
2018-12-01T10:06:49.208Z,18.27
2018-12-01T10:09:19.223Z,19.60
2018-12-01T10:11:50.564Z,18.97
2018-12-01T10:14:19.355Z,19.37
2018-12-01T10:16:49.368Z,18.83
2018-12-01T10:19:19.410Z,20.90
2018-12-01T10:21:49.458Z,18.43
2018-12-01T10:24:19.555Z,11.53
2018-12-01T10:26:49.612Z,17.23
2018-12-01T10:29:19.657Z,22.77
2018-12-01T10:31:49.687Z,20.93
2018-12-01T10:34:19.763Z,21.03
2018-12-01T10:36:49.696Z,22.67
2018-12-01T10:39:19.759Z,21.53
2018-12-01T10:41:49.819Z,19.13
2018-12-01T10:44:19.823Z,21.47
2018-12-01T10:46:49.915Z,23.03
2018-12-01T10:49:19.967Z,19.90
2018-12-01T10:51:50.015Z,22.80
2018-12-01T10:54:20.028Z,18.23
2018-12-01T10:56:50.191Z,22.27
2018-12-01T10:59:20.207Z,21.63
2018-12-01T11:01:55.408Z,20.83
2018-12-01T11:04:30.783Z,24.43
2018-12-01T11:07:00.863Z,21.23
2018-12-01T11:09:30.907Z,21.63
2018-12-01T11:12:00.987Z,20.50
2018-12-01T11:14:31.040Z,22.27
2018-12-01T11:17:01.151Z,21.03
2018-12-01T11:19:31.204Z,22.67
2018-12-01T11:22:01.272Z,21.93
2018-12-01T11:24:31.369Z,23.80
2018-12-01T11:27:01.372Z,19.70
2018-12-01T11:29:31.512Z,24.07
2018-12-01T11:32:01.591Z,24.07
2018-12-01T11:34:31.572Z,24.33
2018-12-01T11:37:01.520Z,23.40
2018-12-01T11:39:31.576Z,24.87
2018-12-01T11:42:01.597Z,19.20
2018-12-01T11:44:31.647Z,22.43
2018-12-01T11:47:01.735Z,24.87
2018-12-01T11:49:31.827Z,25.17
2018-12-01T11:52:01.851Z,23.60
2018-12-01T11:54:31.919Z,21.47
2018-12-01T11:57:01.969Z,23.23
2018-12-01T11:59:31.992Z,19.30
2018-12-01T12:02:02.014Z,21.83
2018-12-01T12:04:32.143Z,25.03
2018-12-01T12:07:02.239Z,19.93
2018-12-01T12:09:32.328Z,25.63
2018-12-01T12:12:02.395Z,24.63
2018-12-01T12:14:32.428Z,24.23
2018-12-01T12:17:02.487Z,23.73
2018-12-01T12:19:32.559Z,21.80
2018-12-01T12:22:02.622Z,23.40
2018-12-01T12:24:32.660Z,24.70
2018-12-01T12:27:02.665Z,21.13
2018-12-01T12:29:32.738Z,25.57
2018-12-01T12:32:02.836Z,22.40
2018-12-01T12:34:32.871Z,27.63
2018-12-01T12:37:02.903Z,25.70
2018-12-01T12:39:38.756Z,21.87
2018-12-01T12:42:14.673Z,25.53
2018-12-01T12:44:50.472Z,23.53
2018-12-01T12:47:26.439Z,21.23
2018-12-01T12:50:02.307Z,25.07
2018-12-01T12:52:38.155Z,22.67
2018-12-01T12:55:15.007Z,23.80
2018-12-01T12:57:50.940Z,24.50
2018-12-01T13:00:24.735Z,18.83
2018-12-01T13:03:03.483Z,22.70
2018-12-01T13:05:41.300Z,20.70
2018-12-01T13:08:18.537Z,18.37
2018-12-01T13:10:48.571Z,18.17
2018-12-01T13:13:18.609Z,18.97
2018-12-01T13:15:48.634Z,18.70
2018-12-01T13:18:18.671Z,21.67
2018-12-01T13:20:48.703Z,18.10
2018-12-01T13:23:22.475Z,23.27
2018-12-01T13:25:52.574Z,22.73
2018-12-01T13:28:23.871Z,24.80
2018-12-01T13:30:55.535Z,22.57
2018-12-01T13:33:25.911Z,23.40
2018-12-01T13:35:56.901Z,23.47
2018-12-01T13:38:27.211Z,25.17
2018-12-01T13:40:57.271Z,19.90
2018-12-01T13:43:27.410Z,21.47
2018-12-01T13:45:58.075Z,23.77
2018-12-01T13:48:28.151Z,27.90
2018-12-01T13:50:58.223Z,24.30
2018-12-01T13:53:28.253Z,20.80
2018-12-01T13:55:58.455Z,28.87
2018-12-01T13:58:28.523Z,25.20
2018-12-01T14:00:58.562Z,23.10
2018-12-01T14:03:28.594Z,26.20
2018-12-01T14:05:58.697Z,24.07
2018-12-01T14:08:28.727Z,27.73
2018-12-01T14:10:58.807Z,29.90
2018-12-01T14:13:28.823Z,26.50
2018-12-01T14:15:58.882Z,18.73
2018-12-01T14:18:29.023Z,27.20
2018-12-01T14:20:59.063Z,25.13
2018-12-01T14:23:29.096Z,26.77
2018-12-01T14:25:59.139Z,24.97
2018-12-01T14:28:29.179Z,29.00
2018-12-01T14:30:59.199Z,27.87
2018-12-01T14:33:29.267Z,24.00
2018-12-01T14:35:59.339Z,21.53
2018-12-01T14:38:29.427Z,24.30
2018-12-01T14:40:59.457Z,24.93
2018-12-01T14:43:29.523Z,20.53
2018-12-01T14:45:59.559Z,23.07
2018-12-01T14:48:29.569Z,26.37
2018-12-01T14:50:59.671Z,22.63
2018-12-01T14:53:29.803Z,29.20
2018-12-01T14:55:59.859Z,29.70
2018-12-01T14:58:29.862Z,25.70
2018-12-01T15:00:59.875Z,23.63
2018-12-01T15:03:29.942Z,26.63
2018-12-01T15:06:00.048Z,24.67
2018-12-01T15:08:30.072Z,24.70
2018-12-01T15:11:00.072Z,26.43
2018-12-01T15:13:30.219Z,25.60
2018-12-01T15:16:00.379Z,25.70
2018-12-01T15:18:30.391Z,22.13
2018-12-01T15:21:00.439Z,25.93
2018-12-01T15:23:30.459Z,26.57
2018-12-01T15:26:00.519Z,27.83
2018-12-01T15:28:30.581Z,23.30
2018-12-01T15:31:00.608Z,22.90
2018-12-01T15:33:30.591Z,26.57
2018-12-01T15:36:00.611Z,23.93
2018-12-01T15:38:30.699Z,26.67
2018-12-01T15:41:00.742Z,23.73
2018-12-01T15:43:30.843Z,20.73
2018-12-01T15:46:00.935Z,21.80
2018-12-01T15:48:30.979Z,27.73
2018-12-01T15:51:01.075Z,26.00
2018-12-01T15:53:31.117Z,34.57
2018-12-01T15:56:01.180Z,25.60
2018-12-01T15:58:31.199Z,28.27
2018-12-01T16:01:01.251Z,26.80
2018-12-01T16:03:31.415Z,31.07
2018-12-01T16:06:01.530Z,30.27
2018-12-01T16:08:31.575Z,26.80
2018-12-01T16:11:01.604Z,30.23
2018-12-01T16:13:31.671Z,28.70
2018-12-01T16:16:03.855Z,27.00
2018-12-01T16:18:33.891Z,28.33
2018-12-01T16:21:03.999Z,29.37
2018-12-01T16:23:34.054Z,33.47
2018-12-01T16:26:04.095Z,32.27
2018-12-01T16:28:34.150Z,32.87
2018-12-01T16:31:04.200Z,38.87
2018-12-01T16:33:34.239Z,32.87
2018-12-01T16:36:04.575Z,37.43
2018-12-01T16:38:35.584Z,34.30
2018-12-01T16:41:16.914Z,42.37
2018-12-01T16:43:47.087Z,38.53
2018-12-01T16:46:17.183Z,37.00
2018-12-01T16:48:47.223Z,37.87
2018-12-01T16:51:17.264Z,46.77
2018-12-01T16:53:47.339Z,38.87
2018-12-01T16:56:17.540Z,39.83
2018-12-01T16:58:47.611Z,42.50
2018-12-01T17:01:18.607Z,39.13
2018-12-01T17:03:47.796Z,36.80
2018-12-01T17:06:19.004Z,46.97
2018-12-01T17:08:49.676Z,38.57
2018-12-01T17:11:19.754Z,37.07
2018-12-01T17:13:49.796Z,41.37
2018-12-01T17:16:19.890Z,39.20
2018-12-01T17:18:50.032Z,42.50
2018-12-01T17:21:20.070Z,46.53
2018-12-01T17:23:50.112Z,42.63
2018-12-01T17:26:20.256Z,46.97
2018-12-01T17:28:50.313Z,39.83
2018-12-01T17:31:20.406Z,46.67
2018-12-01T17:33:50.499Z,43.53
2018-12-01T17:36:20.543Z,42.77
2018-12-01T17:38:50.663Z,44.73
2018-12-01T17:41:22.864Z,39.30
2018-12-01T17:43:54.593Z,43.07
2018-12-01T17:46:24.708Z,47.23
2018-12-01T17:48:54.792Z,46.73
2018-12-01T17:51:24.847Z,47.47
2018-12-01T17:53:56.621Z,47.20
2018-12-01T17:56:26.658Z,41.90
2018-12-01T17:58:56.729Z,41.03
2018-12-01T18:01:26.752Z,43.80
2018-12-01T18:03:56.821Z,46.10
2018-12-01T18:06:26.879Z,42.30
2018-12-01T18:08:56.952Z,50.63
2018-12-01T18:11:29.548Z,41.23
2018-12-01T18:13:57.023Z,42.60
2018-12-01T18:16:27.047Z,47.27
2018-12-01T18:18:57.083Z,42.30
2018-12-01T18:21:27.144Z,39.37
2018-12-01T18:23:57.167Z,39.80
2018-12-01T18:26:27.211Z,37.37
2018-12-01T18:28:57.239Z,36.67
2018-12-01T18:31:28.118Z,43.00
2018-12-01T18:34:04.797Z,35.77
2018-12-01T18:36:34.879Z,35.83
2018-12-01T18:39:08.518Z,34.10
2018-12-01T18:41:38.575Z,36.97
2018-12-01T18:44:08.639Z,33.03
2018-12-01T18:46:38.675Z,33.00
2018-12-01T18:49:08.676Z,34.40
2018-12-01T18:51:38.775Z,36.27
2018-12-01T18:54:08.791Z,33.83
2018-12-01T18:56:38.872Z,30.13
2018-12-01T18:59:08.903Z,31.73
2018-12-01T19:01:38.952Z,30.33
2018-12-01T19:04:08.999Z,35.17
2018-12-01T19:06:39.128Z,34.23
2018-12-01T19:09:09.247Z,30.50
2018-12-01T19:11:39.252Z,34.67
2018-12-01T19:14:09.383Z,32.07
2018-12-01T19:16:39.448Z,39.77
2018-12-01T19:19:09.544Z,35.17
2018-12-01T19:21:39.826Z,36.50
2018-12-01T19:24:09.834Z,41.63
2018-12-01T19:26:39.911Z,34.33
2018-12-01T19:29:10.115Z,43.27
2018-12-01T19:31:40.152Z,39.73
2018-12-01T19:34:10.259Z,38.17
2018-12-01T19:36:40.307Z,37.73
2018-12-01T19:39:10.343Z,38.63
2018-12-01T19:41:40.457Z,38.23
2018-12-01T19:44:10.533Z,40.47
2018-12-01T19:46:40.603Z,43.63
2018-12-01T19:49:10.610Z,43.33
2018-12-01T19:51:40.767Z,37.67
2018-12-01T19:54:10.827Z,40.87
2018-12-01T19:56:40.876Z,49.30
2018-12-01T19:59:10.908Z,40.07
2018-12-01T20:01:40.963Z,46.57
2018-12-01T20:04:10.919Z,42.70
2018-12-01T20:06:40.979Z,42.30
2018-12-01T20:09:11.027Z,41.03
2018-12-01T20:11:41.115Z,36.83
2018-12-01T20:14:13.813Z,39.50
2018-12-01T20:16:46.495Z,42.97
2018-12-01T20:19:16.515Z,34.97
2018-12-01T20:21:46.563Z,37.63
2018-12-01T20:24:16.561Z,40.60
2018-12-01T20:26:46.595Z,38.83
2018-12-01T20:29:16.611Z,43.73
2018-12-01T20:31:46.655Z,41.53
2018-12-01T20:34:16.688Z,34.83
2018-12-01T20:37:03.811Z,36.57
2018-12-01T20:39:36.267Z,37.63
2018-12-01T20:42:06.497Z,43.80
2018-12-01T20:44:36.521Z,39.73
2018-12-01T20:47:06.663Z,36.93
2018-12-01T20:49:36.691Z,40.33
2018-12-01T20:52:06.984Z,38.20
2018-12-01T20:54:42.136Z,42.10
2018-12-01T20:57:19.780Z,40.40
2018-12-01T20:59:49.807Z,33.87
2018-12-01T21:02:19.827Z,39.60
2018-12-01T21:04:49.867Z,43.33
2018-12-01T21:07:19.899Z,44.83
2018-12-01T21:09:49.955Z,43.00
2018-12-01T21:12:19.960Z,42.97
2018-12-01T21:14:49.987Z,44.73
2018-12-01T21:17:20.151Z,43.80
2018-12-01T21:19:50.187Z,40.73
2018-12-01T21:22:20.225Z,44.67
2018-12-01T21:24:50.247Z,51.20
2018-12-01T21:27:20.303Z,50.60
2018-12-01T21:29:50.234Z,41.90
2018-12-01T21:32:20.271Z,41.33
2018-12-01T21:34:50.307Z,43.43
2018-12-01T21:37:20.341Z,41.87
2018-12-01T21:39:50.379Z,46.53
2018-12-01T21:42:20.420Z,51.30
2018-12-01T21:44:50.745Z,47.83
2018-12-01T21:47:20.791Z,44.30
2018-12-01T21:49:50.843Z,45.07
2018-12-01T21:52:20.882Z,47.57
2018-12-01T21:54:50.915Z,45.73
2018-12-01T21:57:20.923Z,48.23
2018-12-01T21:59:50.953Z,57.60
2018-12-01T22:02:20.995Z,47.90
2018-12-01T22:04:51.010Z,47.60
2018-12-01T22:07:21.011Z,49.83
2018-12-01T22:09:51.020Z,42.73
2018-12-01T22:12:21.179Z,43.57
2018-12-01T22:14:51.217Z,55.33
2018-12-01T22:17:21.268Z,44.33
2018-12-01T22:19:51.327Z,44.23
2018-12-01T22:22:21.395Z,43.47
2018-12-01T22:24:51.403Z,47.00
2018-12-01T22:27:21.454Z,43.13
2018-12-01T22:29:51.451Z,44.77
2018-12-01T22:32:21.480Z,36.33
2018-12-01T22:34:51.527Z,45.23
2018-12-01T22:37:21.584Z,39.90
2018-12-01T22:39:51.632Z,35.67
2018-12-01T22:42:21.647Z,36.27
2018-12-01T22:44:51.587Z,36.40
2018-12-01T22:47:21.569Z,37.80
2018-12-01T22:49:51.589Z,36.07
2018-12-01T22:52:21.621Z,31.83
2018-12-01T22:54:51.676Z,33.10
2018-12-01T22:57:21.699Z,33.33
2018-12-01T22:59:51.747Z,31.57
2018-12-01T23:02:21.830Z,35.50
2018-12-01T23:04:51.850Z,27.57
2018-12-01T23:07:21.911Z,32.03
2018-12-01T23:09:51.959Z,33.70
2018-12-01T23:12:21.995Z,32.03
2018-12-01T23:14:51.987Z,32.50
2018-12-01T23:17:21.941Z,31.57
2018-12-01T23:19:51.883Z,35.43
2018-12-01T23:22:21.897Z,35.80
2018-12-01T23:24:51.927Z,29.83
2018-12-01T23:27:21.935Z,25.00
2018-12-01T23:29:52.028Z,35.57
2018-12-01T23:32:22.039Z,32.83
2018-12-01T23:34:53.278Z,34.73
2018-12-01T23:37:22.143Z,29.73
2018-12-01T23:39:52.153Z,32.33
2018-12-01T23:42:22.197Z,32.60
2018-12-01T23:44:52.280Z,31.17
2018-12-01T23:47:22.313Z,30.57
2018-12-01T23:49:52.335Z,30.47
2018-12-01T23:52:22.372Z,27.53
2018-12-01T23:54:52.415Z,31.50
2018-12-01T23:57:22.452Z,29.37
2018-12-01T23:59:52.471Z,35.33
